Time;durP1;ratioP1;P1;durP2;ratioP2;P2;SDS_P1;SDS_P2;PMS_P1;PMS_P2;Temp;Humidity;BMP_temperature;BMP_pressure;BME280_temperature;BME280_humidity;BME280_pressure;Samples;Min_cycle;Max_cycle;Signal;HPM_P1;HPM_P2
2022/06/08 00:00:24;;;;;;;13.00;11.90;;;;;;;;;;5063809;28;24839;-48
2022/06/08 00:02:52;;;;;;;13.18;12.18;;;;;;;;;;5066082;28;24952;-47
2022/06/08 00:05:17;;;;;;;12.63;11.60;;;;;;;;;;5065821;28;25101;-47
2022/06/08 00:07:43;;;;;;;12.17;11.17;;;;;;;;;;5065892;28;24514;-47
2022/06/08 00:10:08;;;;;;;13.40;12.30;;;;;;;;;;5064458;28;24948;-47
2022/06/08 00:12:34;;;;;;;12.00;11.10;;;;;;;;;;5066109;28;24454;-46
2022/06/08 00:14:59;;;;;;;14.68;13.48;;;;;;;;;;5065180;28;24431;-46
2022/06/08 00:17:24;;;;;;;12.77;11.77;;;;;;;;;;5065696;28;24426;-46
2022/06/08 00:19:50;;;;;;;12.68;11.57;;;;;;;;;;5065115;28;24525;-46
2022/06/08 00:22:15;;;;;;;12.88;11.77;;;;;;;;;;5065831;28;24423;-47
2022/06/08 00:24:40;;;;;;;13.13;12.00;;;;;;;;;;5066248;28;24410;-47
2022/06/08 00:27:05;;;;;;;13.65;12.45;;;;;;;;;;5061644;28;24470;-46
2022/06/08 00:29:31;;;;;;;13.02;11.93;;;;;;;;;;5062605;28;24520;-47
2022/06/08 00:31:56;;;;;;;13.37;12.27;;;;;;;;;;5060651;28;25111;-47
2022/06/08 00:34:21;;;;;;;14.83;13.43;;;;;;;;;;5056228;28;24968;-46
2022/06/08 00:36:46;;;;;;;13.77;12.68;;;;;;;;;;5062425;28;24423;-47
2022/06/08 00:39:12;;;;;;;13.75;12.63;;;;;;;;;;5063663;28;24475;-47
2022/06/08 00:41:37;;;;;;;12.75;11.75;;;;;;;;;;5064539;28;24521;-47
2022/06/08 00:44:04;;;;;;;14.00;12.50;;;;;;;;;;5075180;28;24496;-46
2022/06/08 00:46:29;;;;;;;14.20;13.00;;;;;;;;;;5079316;28;24450;-47
2022/06/08 00:48:56;;;;;;;13.50;12.40;;;;;;;;;;5077791;28;24431;-47
2022/06/08 00:51:22;;;;;;;13.57;12.48;;;;;;;;;;5065308;28;24441;-47
2022/06/08 00:53:49;;;;;;;13.67;12.47;;;;;;;;;;5056195;28;25221;-46
2022/06/08 00:56:17;;;;;;;12.95;11.80;;;;;;;;;;5062244;28;24430;-47
2022/06/08 00:58:42;;;;;;;13.43;12.23;;;;;;;;;;5066694;28;24465;-46
2022/06/08 01:01:07;;;;;;;12.87;11.87;;;;;;;;;;5065911;28;24454;-46
2022/06/08 01:03:32;;;;;;;13.30;12.10;;;;;;;;;;5064229;28;24430;-47
2022/06/08 01:05:58;;;;;;;13.60;12.50;;;;;;;;;;5064912;28;24972;-46
2022/06/08 01:08:32;;;;;;;13.45;12.30;;;;;;;;;;5066389;28;24409;-47
2022/06/08 01:10:59;;;;;;;12.40;11.30;;;;;;;;;;5065275;28;24491;-46
2022/06/08 01:13:26;;;;;;;13.47;12.37;;;;;;;;;;5065346;28;24421;-47
2022/06/08 01:15:51;;;;;;;13.38;12.20;;;;;;;;;;5066657;28;24437;-47
2022/06/08 01:18:16;;;;;;;13.80;12.50;;;;;;;;;;5066269;28;24776;-47
2022/06/08 01:20:43;;;;;;;13.50;12.40;;;;;;;;;;5064917;28;25327;-47
2022/06/08 01:23:08;;;;;;;13.15;11.95;;;;;;;;;;5062111;28;24503;-47
2022/06/08 01:25:37;;;;;;;13.38;12.10;;;;;;;;;;5073694;28;24492;-47
2022/06/08 01:28:18;;;;;;;13.65;12.55;;;;;;;;;;5064098;28;24514;-46
2022/06/08 01:30:48;;;;;;;13.68;12.48;;;;;;;;;;5065271;28;24495;-47
2022/06/08 01:33:22;;;;;;;13.95;12.73;;;;;;;;;;5063153;28;24802;-46
2022/06/08 01:36:02;;;;;;;13.70;12.50;;;;;;;;;;5070575;28;24515;-46
2022/06/08 01:38:40;;;;;;;14.17;12.77;;;;;;;;;;5066983;28;24441;-47
2022/06/08 01:41:05;;;;;;;13.77;12.57;;;;;;;;;;5070717;28;24421;-47
2022/06/08 01:43:30;;;;;;;13.70;12.50;;;;;;;;;;5073114;28;24444;-47
2022/06/08 01:46:02;;;;;;;13.52;12.32;;;;;;;;;;5060594;28;24791;-47
2022/06/08 01:48:36;;;;;;;14.60;13.40;;;;;;;;;;5063081;28;24470;-46
2022/06/08 01:51:11;;;;;;;12.95;11.85;;;;;;;;;;5064646;28;24460;-47
2022/06/08 01:53:51;;;;;;;13.27;12.18;;;;;;;;;;5064328;28;24991;-46
2022/06/08 01:56:35;;;;;;;13.10;11.90;;;;;;;;;;5066454;28;24780;-46
2022/06/08 01:59:01;;;;;;;14.35;13.05;;;;;;;;;;5063150;28;24521;-47
2022/06/08 02:01:31;;;;;;;13.10;12.00;;;;;;;;;;5077138;28;25374;-47
2022/06/08 02:04:04;;;;;;;14.52;13.23;;;;;;;;;;5086197;28;24413;-47
2022/06/08 02:06:36;;;;;;;14.43;13.23;;;;;;;;;;5068714;28;24438;-47
2022/06/08 02:09:06;;;;;;;15.00;13.90;;;;;;;;;;5069527;28;24465;-46
2022/06/08 02:11:39;;;;;;;13.70;12.70;;;;;;;;;;5066236;28;24516;-47
2022/06/08 02:14:12;;;;;;;13.30;12.27;;;;;;;;;;5070495;28;24427;-46
2022/06/08 02:16:42;;;;;;;13.68;12.57;;;;;;;;;;5066411;28;24477;-46
2022/06/08 02:19:17;;;;;;;13.27;12.27;;;;;;;;;;5075230;28;24781;-47
2022/06/08 02:21:45;;;;;;;13.50;12.50;;;;;;;;;;5065744;28;24427;-47
2022/06/08 02:24:12;;;;;;;13.40;12.40;;;;;;;;;;5067215;28;24524;-46
2022/06/08 02:26:46;;;;;;;13.88;12.88;;;;;;;;;;5063363;28;24438;-47
2022/06/08 02:29:14;;;;;;;15.05;13.85;;;;;;;;;;5070217;28;24471;-47
2022/06/08 02:31:48;;;;;;;15.10;14.00;;;;;;;;;;5056184;28;24503;-47
2022/06/08 02:34:28;;;;;;;16.77;15.57;;;;;;;;;;5068224;28;24486;-47
2022/06/08 02:36:56;;;;;;;14.40;13.40;;;;;;;;;;5062508;28;24978;-48
2022/06/08 02:39:23;;;;;;;15.57;14.38;;;;;;;;;;5066171;28;24473;-47
2022/06/08 02:41:50;;;;;;;15.48;14.30;;;;;;;;;;5062079;28;24844;-46
2022/06/08 02:44:18;;;;;;;14.88;13.77;;;;;;;;;;5059650;28;24445;-46
2022/06/08 02:46:47;;;;;;;15.90;14.70;;;;;;;;;;5066532;28;24477;-47
2022/06/08 02:49:12;;;;;;;15.27;14.07;;;;;;;;;;5064350;28;24430;-47
2022/06/08 02:51:40;;;;;;;16.67;15.27;;;;;;;;;;5066324;28;24419;-46
2022/06/08 02:54:07;;;;;;;15.73;14.53;;;;;;;;;;5067687;28;24967;-47
2022/06/08 02:56:35;;;;;;;15.57;14.38;;;;;;;;;;5065741;28;24859;-48
2022/06/08 02:59:11;;;;;;;17.65;16.25;;;;;;;;;;5064113;28;24437;-46
2022/06/08 03:01:58;;;;;;;18.20;16.80;;;;;;;;;;5061515;28;24422;-46
2022/06/08 03:04:27;;;;;;;16.83;15.52;;;;;;;;;;5064740;28;24517;-47
2022/06/08 03:06:54;;;;;;;15.90;14.70;;;;;;;;;;5064206;28;24781;-46
2022/06/08 03:09:21;;;;;;;16.20;14.90;;;;;;;;;;5060822;28;24484;-47
2022/06/08 03:11:49;;;;;;;16.00;14.70;;;;;;;;;;5057534;28;24505;-47
2022/06/08 03:14:15;;;;;;;16.30;15.00;;;;;;;;;;5058562;28;24979;-47
2022/06/08 03:17:01;;;;;;;17.07;15.67;;;;;;;;;;5066783;28;25269;-47
2022/06/08 03:19:28;;;;;;;18.45;16.85;;;;;;;;;;5064399;28;24439;-47
2022/06/08 03:21:54;;;;;;;17.33;15.93;;;;;;;;;;5066376;28;24426;-46
2022/06/08 03:24:21;;;;;;;16.70;15.40;;;;;;;;;;5064788;28;24422;-47
2022/06/08 03:26:48;;;;;;;16.50;15.20;;;;;;;;;;5056735;28;25012;-46
2022/06/08 03:29:13;;;;;;;17.15;15.75;;;;;;;;;;5045863;28;24407;-46
2022/06/08 03:31:38;;;;;;;17.40;15.98;;;;;;;;;;5059521;28;24497;-47
2022/06/08 03:34:04;;;;;;;17.60;16.10;;;;;;;;;;5073684;28;24848;-47
2022/06/08 03:36:29;;;;;;;16.20;14.90;;;;;;;;;;5075227;28;24500;-47
2022/06/08 03:38:54;;;;;;;16.37;15.07;;;;;;;;;;5053899;28;24825;-47
2022/06/08 03:41:19;;;;;;;18.42;16.85;;;;;;;;;;5062031;28;24423;-46
2022/06/08 03:43:44;;;;;;;15.83;14.53;;;;;;;;;;5075780;28;24504;-47
2022/06/08 03:46:10;;;;;;;18.10;16.60;;;;;;;;;;5067997;28;24490;-45
2022/06/08 03:48:36;;;;;;;15.60;14.30;;;;;;;;;;5067558;28;24410;-45
2022/06/08 03:51:01;;;;;;;15.80;14.40;;;;;;;;;;5066647;28;24472;-45
2022/06/08 03:54:05;;;;;;;15.87;14.47;;;;;;;;;;5067565;28;24409;-45
2022/06/08 03:56:32;;;;;;;15.93;14.52;;;;;;;;;;5022681;28;24490;-45
2022/06/08 03:58:57;;;;;;;14.98;13.77;;;;;;;;;;5017904;28;24527;-45
2022/06/08 04:01:23;;;;;;;14.80;13.60;;;;;;;;;;5023922;28;24506;-45
2022/06/08 04:03:51;;;;;;;17.33;15.93;;;;;;;;;;5066075;28;25029;-45
2022/06/08 04:06:17;;;;;;;15.07;13.88;;;;;;;;;;5064510;28;24525;-45
2022/06/08 04:08:42;;;;;;;16.08;14.68;;;;;;;;;;5065897;28;24518;-45
2022/06/08 04:11:07;;;;;;;15.70;14.40;;;;;;;;;;5066180;28;24411;-46
2022/06/08 04:13:33;;;;;;;13.90;12.73;;;;;;;;;;5066845;28;24399;-46
2022/06/08 04:15:58;;;;;;;15.45;14.15;;;;;;;;;;5067390;28;25264;-46
2022/06/08 04:18:23;;;;;;;14.40;13.20;;;;;;;;;;5065251;28;24998;-46
2022/06/08 04:20:50;;;;;;;15.00;13.80;;;;;;;;;;5065608;28;24421;-46
2022/06/08 04:23:16;;;;;;;14.50;13.40;;;;;;;;;;5063636;28;24433;-46
2022/06/08 04:25:42;;;;;;;14.07;12.77;;;;;;;;;;5061713;28;24513;-45
2022/06/08 04:28:08;;;;;;;13.30;12.00;;;;;;;;;;5078412;28;24830;-46
2022/06/08 04:30:33;;;;;;;13.05;11.75;;;;;;;;;;5068158;28;24841;-46
2022/06/08 04:32:59;;;;;;;12.40;11.23;;;;;;;;;;5057983;28;24533;-46
2022/06/08 04:35:25;;;;;;;13.45;12.15;;;;;;;;;;5060962;28;24418;-46
2022/06/08 04:37:51;;;;;;;12.77;11.50;;;;;;;;;;5063783;28;24490;-46
2022/06/08 04:40:16;;;;;;;10.80;9.90;;;;;;;;;;5066247;28;24521;-46
2022/06/08 04:42:42;;;;;;;12.07;11.07;;;;;;;;;;5056500;28;24419;-46
2022/06/08 04:45:07;;;;;;;11.20;10.20;;;;;;;;;;5075613;28;24835;-46
2022/06/08 04:47:32;;;;;;;11.40;10.40;;;;;;;;;;5079352;28;24418;-47
2022/06/08 04:49:58;;;;;;;10.03;9.13;;;;;;;;;;5075858;28;24449;-46
2022/06/08 04:52:23;;;;;;;9.45;8.65;;;;;;;;;;5077761;28;24421;-46
2022/06/08 04:54:48;;;;;;;9.63;8.80;;;;;;;;;;5050531;28;24426;-49
2022/06/08 04:57:13;;;;;;;9.43;8.63;;;;;;;;;;5067722;28;24481;-47
2022/06/08 04:59:39;;;;;;;8.40;7.80;;;;;;;;;;5057112;28;24420;-46
2022/06/08 05:02:04;;;;;;;8.80;8.10;;;;;;;;;;5061177;28;24395;-47
2022/06/08 05:04:29;;;;;;;8.67;7.97;;;;;;;;;;5059534;28;24449;-47
2022/06/08 05:06:54;;;;;;;10.25;9.35;;;;;;;;;;5060016;28;24418;-47
2022/06/08 05:09:20;;;;;;;9.05;8.32;;;;;;;;;;5058103;28;24422;-46
2022/06/08 05:11:45;;;;;;;8.20;7.60;;;;;;;;;;5073854;28;24523;-46
2022/06/08 05:14:10;;;;;;;7.73;7.20;;;;;;;;;;5081198;28;24395;-46
2022/06/08 05:16:35;;;;;;;8.43;7.53;;;;;;;;;;5062538;28;24995;-47
2022/06/08 05:19:00;;;;;;;7.93;7.32;;;;;;;;;;5055173;28;24422;-46
2022/06/08 05:21:26;;;;;;;9.90;9.00;;;;;;;;;;5064020;28;24409;-46
2022/06/08 05:23:51;;;;;;;8.10;7.40;;;;;;;;;;5073349;28;24423;-45
2022/06/08 05:26:16;;;;;;;7.85;7.25;;;;;;;;;;5076731;28;24422;-46
2022/06/08 05:28:41;;;;;;;7.17;6.67;;;;;;;;;;5086254;28;24532;-46
2022/06/08 05:31:07;;;;;;;6.40;6.00;;;;;;;;;;5086325;28;24486;-46
2022/06/08 05:33:32;;;;;;;7.07;6.57;;;;;;;;;;5086065;28;24432;-47
2022/06/08 05:35:58;;;;;;;6.40;6.00;;;;;;;;;;5073689;28;25291;-46
2022/06/08 05:38:23;;;;;;;6.80;6.30;;;;;;;;;;5070203;28;24490;-46
2022/06/08 05:40:49;;;;;;;7.60;7.00;;;;;;;;;;5069744;28;24399;-46
2022/06/08 05:43:15;;;;;;;5.70;5.30;;;;;;;;;;5069252;28;25150;-46
2022/06/08 05:45:40;;;;;;;6.53;6.13;;;;;;;;;;5067486;28;24538;-47
2022/06/08 05:48:06;;;;;;;6.03;5.63;;;;;;;;;;5069458;28;24433;-46
2022/06/08 05:50:31;;;;;;;5.93;5.53;;;;;;;;;;5068078;28;24453;-46
2022/06/08 05:52:56;;;;;;;6.70;6.27;;;;;;;;;;5068449;28;24455;-46
2022/06/08 05:55:23;;;;;;;6.17;5.77;;;;;;;;;;5071083;28;24430;-46
2022/06/08 05:57:48;;;;;;;6.45;5.85;;;;;;;;;;5068066;28;24523;-46
2022/06/08 06:00:17;;;;;;;6.97;6.47;;;;;;;;;;5072784;28;24446;-46
2022/06/08 06:02:43;;;;;;;5.50;5.10;;;;;;;;;;5075937;28;25237;-47
2022/06/08 06:05:09;;;;;;;6.40;5.90;;;;;;;;;;5087930;28;24497;-46
2022/06/08 06:07:34;;;;;;;5.50;5.10;;;;;;;;;;5085449;28;24780;-47
2022/06/08 06:10:03;;;;;;;5.22;4.82;;;;;;;;;;5086434;28;24940;-46
2022/06/08 06:12:28;;;;;;;5.43;5.03;;;;;;;;;;5086478;28;24467;-46
2022/06/08 06:14:53;;;;;;;5.00;4.70;;;;;;;;;;5086000;28;24485;-47
2022/06/08 06:17:18;;;;;;;5.50;5.20;;;;;;;;;;5078603;28;24441;-46
2022/06/08 06:19:44;;;;;;;5.10;4.80;;;;;;;;;;5072781;28;24502;-46
2022/06/08 06:22:09;;;;;;;5.95;5.45;;;;;;;;;;5069990;28;24429;-47
2022/06/08 06:24:34;;;;;;;4.70;4.40;;;;;;;;;;5087788;28;24398;-45
2022/06/08 06:26:59;;;;;;;5.70;5.30;;;;;;;;;;5087963;28;24433;-46
2022/06/08 06:29:24;;;;;;;5.00;4.60;;;;;;;;;;5074831;28;24823;-46
2022/06/08 06:31:52;;;;;;;4.80;4.50;;;;;;;;;;5062332;28;24431;-46
2022/06/08 06:34:18;;;;;;;5.13;4.83;;;;;;;;;;5056893;28;24549;-46
2022/06/08 06:36:43;;;;;;;5.35;5.05;;;;;;;;;;5068515;28;24508;-46
2022/06/08 06:39:09;;;;;;;5.70;5.20;;;;;;;;;;5069129;28;24476;-46
2022/06/08 06:41:35;;;;;;;4.20;3.90;;;;;;;;;;5072707;28;24410;-47
2022/06/08 06:44:00;;;;;;;4.60;4.20;;;;;;;;;;5066692;28;25108;-46
2022/06/08 06:46:25;;;;;;;3.90;3.60;;;;;;;;;;5063500;28;24446;-47
2022/06/08 06:48:50;;;;;;;4.07;3.78;;;;;;;;;;5065846;28;24493;-47
2022/06/08 06:51:16;;;;;;;4.80;4.50;;;;;;;;;;5066491;28;24777;-47
2022/06/08 06:53:41;;;;;;;4.00;3.70;;;;;;;;;;5059441;28;24423;-47
2022/06/08 06:56:08;;;;;;;3.95;3.65;;;;;;;;;;5071240;28;24441;-46
2022/06/08 06:58:33;;;;;;;4.00;3.70;;;;;;;;;;5065646;28;24420;-47
2022/06/08 07:00:58;;;;;;;4.90;4.50;;;;;;;;;;5066813;28;24435;-46
2022/06/08 07:03:23;;;;;;;3.88;3.58;;;;;;;;;;5053046;28;24409;-46
2022/06/08 07:05:49;;;;;;;4.50;4.20;;;;;;;;;;5056105;28;24843;-47
2022/06/08 07:08:14;;;;;;;4.60;4.30;;;;;;;;;;5067964;28;24383;-48
2022/06/08 07:10:40;;;;;;;4.50;4.20;;;;;;;;;;5067702;28;24474;-46
2022/06/08 07:13:05;;;;;;;4.10;3.80;;;;;;;;;;5068123;28;24979;-46
2022/06/08 07:15:30;;;;;;;5.20;4.70;;;;;;;;;;5066527;28;24485;-47
2022/06/08 07:17:56;;;;;;;3.90;3.70;;;;;;;;;;5068142;28;25068;-46
2022/06/08 07:20:21;;;;;;;4.85;4.45;;;;;;;;;;5067991;28;24456;-46
2022/06/08 07:22:46;;;;;;;4.67;4.37;;;;;;;;;;5067342;28;24414;-46
2022/06/08 07:25:12;;;;;;;3.90;3.60;;;;;;;;;;5067923;28;24477;-46
2022/06/08 07:27:38;;;;;;;3.60;3.30;;;;;;;;;;5063855;28;24521;-46
2022/06/08 07:30:04;;;;;;;4.83;4.43;;;;;;;;;;5068060;28;24468;-46
2022/06/08 07:32:29;;;;;;;4.00;3.70;;;;;;;;;;5068124;28;24387;-47
2022/06/08 07:34:54;;;;;;;3.30;3.10;;;;;;;;;;5067501;28;24442;-47
2022/06/08 07:37:19;;;;;;;3.83;3.53;;;;;;;;;;5062689;28;24522;-47
2022/06/08 07:39:45;;;;;;;3.90;3.60;;;;;;;;;;5067771;28;24827;-46
2022/06/08 07:42:10;;;;;;;3.97;3.67;;;;;;;;;;5045900;28;24801;-47
2022/06/08 07:44:35;;;;;;;4.25;3.92;;;;;;;;;;5047539;28;24674;-46
2022/06/08 07:47:00;;;;;;;3.80;3.50;;;;;;;;;;5050186;28;24442;-46
2022/06/08 07:49:37;;;;;;;3.80;3.50;;;;;;;;;;5067418;28;25018;-46
2022/06/08 07:52:05;;;;;;;3.20;3.00;;;;;;;;;;5067320;28;24386;-47
2022/06/08 07:54:30;;;;;;;3.70;3.35;;;;;;;;;;5067263;28;25286;-46
2022/06/08 07:56:56;;;;;;;4.00;3.70;;;;;;;;;;5066873;28;24517;-46
2022/06/08 07:59:23;;;;;;;5.85;3.70;;;;;;;;;;5065878;28;24953;-46
2022/06/08 08:01:48;;;;;;;3.00;2.80;;;;;;;;;;5067466;28;24390;-47
2022/06/08 08:04:14;;;;;;;3.90;3.47;;;;;;;;;;5067110;28;24493;-47
2022/06/08 08:06:39;;;;;;;3.50;3.20;;;;;;;;;;5067059;28;24397;-47
2022/06/08 08:09:04;;;;;;;2.90;2.70;;;;;;;;;;5065721;28;24430;-46
2022/06/08 08:11:29;;;;;;;2.60;2.40;;;;;;;;;;5067247;28;24429;-46
2022/06/08 08:13:54;;;;;;;2.80;2.60;;;;;;;;;;5066957;28;24406;-47
2022/06/08 08:16:19;;;;;;;2.70;2.50;;;;;;;;;;5067220;28;24488;-46
2022/06/08 08:18:45;;;;;;;2.40;2.10;;;;;;;;;;5061707;28;24465;-46
2022/06/08 08:21:10;;;;;;;3.00;2.60;;;;;;;;;;5064671;28;24925;-46
2022/06/08 08:23:35;;;;;;;2.30;2.20;;;;;;;;;;5065889;28;24410;-46
2022/06/08 08:26:01;;;;;;;1.90;1.80;;;;;;;;;;5066129;28;24414;-47
2022/06/08 08:28:26;;;;;;;2.67;2.10;;;;;;;;;;5066867;28;24383;-47
2022/06/08 08:30:51;;;;;;;2.20;2.00;;;;;;;;;;5064510;28;25267;-47
2022/06/08 08:33:16;;;;;;;1.80;1.70;;;;;;;;;;5066863;28;24397;-46
2022/06/08 08:35:42;;;;;;;2.10;1.70;;;;;;;;;;5066605;28;24541;-47
2022/06/08 08:38:08;;;;;;;1.80;1.70;;;;;;;;;;5066695;28;24460;-47
2022/06/08 08:40:44;;;;;;;1.77;1.67;;;;;;;;;;5065418;28;24433;-47
2022/06/08 08:43:11;;;;;;;2.23;2.00;;;;;;;;;;5066118;28;24418;-46
2022/06/08 08:45:45;;;;;;;1.90;1.80;;;;;;;;;;5066615;28;24928;-51
2022/06/08 08:48:24;;;;;;;2.03;1.83;;;;;;;;;;5066720;28;24538;-47
2022/06/08 08:50:55;;;;;;;1.90;1.80;;;;;;;;;;5064978;28;24793;-47
2022/06/08 08:53:36;;;;;;;1.98;1.83;;;;;;;;;;5066417;28;24414;-47
2022/06/08 08:56:05;;;;;;;2.20;2.00;;;;;;;;;;5066455;28;24423;-47
2022/06/08 08:58:34;;;;;;;2.05;1.90;;;;;;;;;;5066421;28;25229;-46
2022/06/08 09:01:11;;;;;;;2.00;1.80;;;;;;;;;;5064989;28;24430;-46
2022/06/08 09:03:40;;;;;;;1.70;1.60;;;;;;;;;;5066316;28;24944;-46
2022/06/08 09:06:12;;;;;;;1.70;1.60;;;;;;;;;;5066425;28;24402;-46
2022/06/08 09:08:37;;;;;;;1.60;1.45;;;;;;;;;;5066406;28;24399;-47
2022/06/08 09:11:02;;;;;;;1.30;1.20;;;;;;;;;;5065099;28;25211;-47
2022/06/08 09:13:32;;;;;;;1.60;1.50;;;;;;;;;;5066382;28;24415;-47
2022/06/08 09:15:57;;;;;;;1.50;1.40;;;;;;;;;;5066300;28;24888;-47
2022/06/08 09:18:36;;;;;;;1.50;1.40;;;;;;;;;;5066754;28;25075;-47
2022/06/08 09:21:22;;;;;;;1.30;1.20;;;;;;;;;;5066461;28;24406;-46
2022/06/08 09:23:52;;;;;;;1.50;1.40;;;;;;;;;;5064479;28;24422;-46
2022/06/08 09:26:23;;;;;;;1.40;1.30;;;;;;;;;;5066178;28;24405;-47
2022/06/08 09:28:59;;;;;;;1.67;1.40;;;;;;;;;;5066273;28;24730;-46
2022/06/08 09:31:33;;;;;;;2.20;2.00;;;;;;;;;;5066150;28;24468;-47
2022/06/08 09:34:19;;;;;;;2.40;2.00;;;;;;;;;;5064715;28;24601;-47
2022/06/08 09:36:45;;;;;;;3.00;2.15;;;;;;;;;;5066072;28;24423;-47
2022/06/08 09:39:12;;;;;;;3.57;2.17;;;;;;;;;;5066157;28;24479;-46
2022/06/08 09:41:39;;;;;;;2.40;2.20;;;;;;;;;;5066197;28;24456;-47
2022/06/08 09:44:04;;;;;;;2.25;2.05;;;;;;;;;;5064450;28;24451;-47
2022/06/08 09:52:42;;;;;;;3.55;1.90;;;;;;;;;;5065797;28;24440;-47
2022/06/08 09:55:26;;;;;;;2.00;1.90;;;;;;;;;;5014494;28;25061;-47
2022/06/08 09:58:05;;;;;;;1.90;1.80;;;;;;;;;;5045511;28;24403;-47
2022/06/08 10:00:30;;;;;;;1.95;1.85;;;;;;;;;;5045932;28;24422;-47
2022/06/08 10:03:14;;;;;;;1.83;1.60;;;;;;;;;;5045521;28;24461;-47
2022/06/08 10:05:54;;;;;;;1.92;1.73;;;;;;;;;;5062158;28;24513;-46
2022/06/08 10:08:24;;;;;;;1.80;1.70;;;;;;;;;;5065629;28;24409;-47
2022/06/08 10:11:34;;;;;;;1.67;1.58;;;;;;;;;;5065712;28;24383;-46
2022/06/08 10:14:19;;;;;;;1.90;1.70;;;;;;;;;;5045621;28;24992;-48
2022/06/08 10:16:48;;;;;;;2.00;1.90;;;;;;;;;;5064155;28;24435;-46
2022/06/08 10:19:20;;;;;;;1.80;1.70;;;;;;;;;;5059772;28;24415;-48
2022/06/08 10:21:45;;;;;;;1.90;1.70;;;;;;;;;;5045493;28;24483;-47
2022/06/08 10:24:23;;;;;;;1.87;1.77;;;;;;;;;;5048655;28;24877;-47
2022/06/08 10:27:03;;;;;;;2.27;1.93;;;;;;;;;;5049223;28;24437;-47
2022/06/08 10:29:35;;;;;;;3.22;2.30;;;;;;;;;;5053069;28;24688;-47
2022/06/08 10:32:04;;;;;;;1.75;1.65;;;;;;;;;;5068017;28;24808;-47
2022/06/08 10:34:33;;;;;;;2.10;2.00;;;;;;;;;;5068904;28;24386;-47
2022/06/08 10:37:04;;;;;;;1.80;1.70;;;;;;;;;;5069008;28;24461;-49
2022/06/08 10:39:30;;;;;;;2.03;1.80;;;;;;;;;;5068016;28;24382;-47
2022/06/08 10:44:59;;;;;;;1.70;1.60;;;;;;;;;;5068759;28;24467;-47
2022/06/08 10:47:26;;;;;;;1.73;1.60;;;;;;;;;;5069070;28;24943;-47
2022/06/08 10:49:53;;;;;;;1.90;1.80;;;;;;;;;;5067579;28;24402;-48
2022/06/08 10:52:18;;;;;;;1.80;1.70;;;;;;;;;;5068549;28;24454;-47
2022/06/08 10:54:54;;;;;;;1.90;1.80;;;;;;;;;;5067674;28;25013;-47
2022/06/08 10:57:36;;;;;;;1.80;1.70;;;;;;;;;;5048406;28;25335;-47
2022/06/08 11:00:19;;;;;;;1.50;1.40;;;;;;;;;;5048662;28;24407;-47
2022/06/08 11:03:03;;;;;;;1.70;1.60;;;;;;;;;;5048530;28;24402;-47
2022/06/08 11:05:42;;;;;;;1.70;1.60;;;;;;;;;;5051479;28;24527;-47
2022/06/08 11:08:07;;;;;;;1.60;1.50;;;;;;;;;;5046460;28;24424;-47
2022/06/08 11:10:41;;;;;;;1.65;1.55;;;;;;;;;;5059199;28;24560;-47
2022/06/08 11:13:25;;;;;;;2.00;1.80;;;;;;;;;;5068048;28;24468;-47
2022/06/08 11:15:53;;;;;;;2.30;2.10;;;;;;;;;;5066834;28;24459;-46
2022/06/08 11:18:21;;;;;;;2.40;2.20;;;;;;;;;;5047831;28;24976;-46
2022/06/08 11:20:49;;;;;;;2.10;2.00;;;;;;;;;;5048215;28;24395;-47
2022/06/08 11:23:27;;;;;;;2.38;2.17;;;;;;;;;;5053002;28;24504;-47
2022/06/08 11:26:05;;;;;;;2.20;2.10;;;;;;;;;;5064757;28;24426;-46
2022/06/08 11:28:30;;;;;;;2.17;1.98;;;;;;;;;;5068052;28;24410;-47
2022/06/08 11:30:57;;;;;;;2.10;2.00;;;;;;;;;;5068294;28;24823;-47
2022/06/08 11:33:22;;;;;;;1.83;1.73;;;;;;;;;;5066041;28;24449;-46
2022/06/08 11:35:47;;;;;;;2.37;2.20;;;;;;;;;;5067728;28;24944;-46
2022/06/08 11:38:18;;;;;;;2.50;2.30;;;;;;;;;;5067917;28;24418;-46
2022/06/08 11:40:45;;;;;;;2.50;2.30;;;;;;;;;;5066779;28;24525;-47
2022/06/08 11:43:10;;;;;;;2.22;2.10;;;;;;;;;;5065001;28;24446;-47
2022/06/08 11:45:38;;;;;;;2.10;1.90;;;;;;;;;;5067855;28;24793;-47
2022/06/08 11:48:18;;;;;;;2.10;1.90;;;;;;;;;;5067770;28;24448;-46
2022/06/08 11:50:46;;;;;;;2.20;2.00;;;;;;;;;;5066377;28;24677;-47
2022/06/08 11:53:15;;;;;;;2.90;2.42;;;;;;;;;;5065905;28;24410;-48
2022/06/08 11:55:45;;;;;;;2.40;2.20;;;;;;;;;;5067280;28;24403;-47
2022/06/08 11:58:16;;;;;;;2.80;2.60;;;;;;;;;;5066589;28;24421;-46
2022/06/08 12:00:42;;;;;;;2.40;2.30;;;;;;;;;;5065318;28;24418;-46
2022/06/08 12:03:16;;;;;;;2.70;2.50;;;;;;;;;;5067114;28;24482;-46
2022/06/08 12:05:41;;;;;;;2.30;2.20;;;;;;;;;;5067688;28;25106;-47
2022/06/08 12:08:18;;;;;;;3.00;2.80;;;;;;;;;;5067280;28;25062;-46
2022/06/08 12:10:43;;;;;;;2.10;2.00;;;;;;;;;;5066158;28;24781;-49
2022/06/08 12:13:15;;;;;;;2.30;2.20;;;;;;;;;;5064008;28;24957;-47
2022/06/08 12:15:46;;;;;;;2.80;2.60;;;;;;;;;;5066775;28;24391;-46
2022/06/08 12:18:26;;;;;;;3.78;2.70;;;;;;;;;;5067104;28;24391;-47
2022/06/08 12:21:03;;;;;;;2.90;2.70;;;;;;;;;;5066783;28;24425;-46
2022/06/08 12:23:54;;;;;;;2.72;2.53;;;;;;;;;;5065398;28;24434;-46
2022/06/08 12:26:21;;;;;;;2.83;2.63;;;;;;;;;;5066584;28;24414;-47
2022/06/08 12:28:49;;;;;;;2.60;2.50;;;;;;;;;;5067292;28;24936;-47
2022/06/08 12:31:29;;;;;;;2.50;2.40;;;;;;;;;;5066525;28;24671;-47
2022/06/08 12:33:54;;;;;;;3.30;3.00;;;;;;;;;;5065301;28;24418;-47
2022/06/08 12:36:21;;;;;;;2.80;2.60;;;;;;;;;;5066978;28;24564;-47
2022/06/08 12:39:05;;;;;;;2.50;2.30;;;;;;;;;;5066552;28;24691;-46
2022/06/08 12:41:38;;;;;;;3.30;2.40;;;;;;;;;;5066552;28;24406;-47
2022/06/08 12:44:04;;;;;;;2.70;2.50;;;;;;;;;;5064208;28;24442;-46
2022/06/08 12:46:34;;;;;;;3.30;2.60;;;;;;;;;;5066869;28;24418;-46
2022/06/08 12:49:04;;;;;;;2.38;2.25;;;;;;;;;;5066538;28;24493;-46
2022/06/08 12:51:29;;;;;;;2.43;2.30;;;;;;;;;;5066890;28;24398;-47
2022/06/08 12:53:55;;;;;;;2.40;2.30;;;;;;;;;;5064940;28;24434;-47
2022/06/08 12:56:22;;;;;;;2.30;2.20;;;;;;;;;;5066559;28;24502;-47
2022/06/08 12:58:48;;;;;;;2.20;2.10;;;;;;;;;;5066508;28;25181;-47
2022/06/08 13:01:13;;;;;;;2.20;2.10;;;;;;;;;;5066418;28;24897;-47
2022/06/08 13:03:40;;;;;;;2.20;2.10;;;;;;;;;;5066035;28;24955;-47
2022/06/08 13:06:05;;;;;;;2.13;2.00;;;;;;;;;;5065560;28;24781;-48
2022/06/08 13:08:30;;;;;;;2.30;2.20;;;;;;;;;;5048197;28;24992;-47
2022/06/08 13:11:00;;;;;;;2.50;2.40;;;;;;;;;;5044687;28;24387;-46
2022/06/08 13:13:27;;;;;;;2.10;2.00;;;;;;;;;;5045771;28;24759;-47
2022/06/08 13:15:53;;;;;;;1.80;1.70;;;;;;;;;;5053634;28;24450;-47
2022/06/08 13:18:23;;;;;;;2.00;1.90;;;;;;;;;;5066128;28;24391;-46
2022/06/08 13:20:49;;;;;;;1.80;1.70;;;;;;;;;;5066113;28;24407;-47
2022/06/08 13:23:14;;;;;;;2.00;1.90;;;;;;;;;;5065621;28;24546;-47
2022/06/08 13:25:40;;;;;;;1.90;1.80;;;;;;;;;;5063990;28;24495;-46
2022/06/08 13:28:20;;;;;;;2.40;2.30;;;;;;;;;;5059974;28;24423;-47
2022/06/08 13:30:48;;;;;;;2.10;2.00;;;;;;;;;;5047826;28;24664;-46
2022/06/08 13:35:58;;;;;;;2.67;2.47;;;;;;;;;;5066174;28;24422;-47
2022/06/08 13:38:24;;;;;;;2.90;2.70;;;;;;;;;;5073206;28;24487;-48
2022/06/08 13:40:49;;;;;;;2.90;2.70;;;;;;;;;;5086454;28;24426;-47
2022/06/08 13:43:14;;;;;;;2.20;2.10;;;;;;;;;;5081882;28;24512;-47
2022/06/08 13:45:41;;;;;;;3.20;3.00;;;;;;;;;;5066135;28;24379;-47
2022/06/08 13:48:12;;;;;;;3.20;2.90;;;;;;;;;;5066403;28;24768;-47
2022/06/08 13:50:40;;;;;;;2.92;2.72;;;;;;;;;;5085915;28;24417;-47
2022/06/08 13:53:07;;;;;;;2.70;2.50;;;;;;;;;;5086134;28;25274;-47
2022/06/08 13:55:35;;;;;;;2.60;2.50;;;;;;;;;;5087482;28;24455;-47
2022/06/08 13:58:03;;;;;;;2.60;2.40;;;;;;;;;;5090644;28;24398;-47
2022/06/08 14:00:29;;;;;;;2.50;2.30;;;;;;;;;;5090094;28;24938;-46
2022/06/08 14:02:59;;;;;;;3.15;2.90;;;;;;;;;;5083032;28;24423;-47
2022/06/08 14:12:59;;;;;;;2.80;2.65;;;;;;;;;;5077917;28;24449;-47
2022/06/08 14:13:45;;;;;;;3.10;2.90;;;;;;;;;;5050747;28;24461;-46
2022/06/08 14:16:10;;;;;;;2.30;2.20;;;;;;;;;;5065452;28;24442;-46
2022/06/08 14:18:40;;;;;;;2.40;2.30;;;;;;;;;;5060087;28;24419;-46
2022/06/08 14:21:05;;;;;;;2.30;2.20;;;;;;;;;;5069267;28;24492;-47
2022/06/08 14:23:31;;;;;;;2.60;2.40;;;;;;;;;;5054518;28;25046;-48
2022/06/08 14:25:57;;;;;;;2.40;2.20;;;;;;;;;;5060236;28;24477;-47
2022/06/08 14:28:22;;;;;;;2.10;2.00;;;;;;;;;;5048774;28;24651;-47
2022/06/08 14:30:48;;;;;;;2.55;2.45;;;;;;;;;;5049358;28;24428;-47
2022/06/08 14:33:18;;;;;;;2.28;2.10;;;;;;;;;;5057253;28;24419;-47
2022/06/08 14:35:43;;;;;;;2.40;2.20;;;;;;;;;;5061725;28;24518;-47
2022/06/08 14:38:14;;;;;;;2.40;2.30;;;;;;;;;;5069479;28;24474;-48
2022/06/08 14:40:39;;;;;;;2.40;2.30;;;;;;;;;;5068758;28;24450;-47
2022/06/08 14:43:06;;;;;;;2.40;2.20;;;;;;;;;;5068817;28;24419;-47
2022/06/08 14:45:31;;;;;;;2.80;2.50;;;;;;;;;;5059396;28;24892;-46
2022/06/08 14:47:56;;;;;;;2.50;2.30;;;;;;;;;;5072527;28;24499;-47
2022/06/08 14:50:24;;;;;;;2.10;1.80;;;;;;;;;;5068851;28;25003;-46
2022/06/08 14:52:49;;;;;;;1.90;1.80;;;;;;;;;;5070006;28;24466;-46
2022/06/08 14:58:00;;;;;;;1.80;1.70;;;;;;;;;;5069086;28;25169;-47
2022/06/08 15:00:26;;;;;;;1.80;1.70;;;;;;;;;;5068693;28;24395;-47